Time;durP1;ratioP1;P1;durP2;ratioP2;P2;SDS_P1;SDS_P2;PMS_P1;PMS_P2;Temp;Humidity;BMP_temperature;BMP_pressure;BME280_temperature;BME280_humidity;BME280_pressure;Samples;Min_cycle;Max_cycle;Signal;HPM_P1;HPM_P2
2021/06/05 00:02:39;;;;;;;14.80;10.33;;;19.50;97.30;;;;;;4917801;29;20455;-91
2021/06/05 00:05:06;;;;;;;12.03;8.83;;;19.50;97.30;;;;;;4918526;29;20471;-89
2021/06/05 00:07:37;;;;;;;10.23;8.77;;;19.60;97.30;;;;;;4917178;29;20430;-89
2021/06/05 00:10:08;;;;;;;13.17;9.50;;;19.60;97.30;;;;;;4917720;29;20435;-89
2021/06/05 00:12:37;;;;;;;15.70;9.10;;;19.50;97.30;;;;;;4917092;29;20443;-89
2021/06/05 00:15:09;;;;;;;14.40;8.83;;;19.50;97.30;;;;;;4916899;29;20432;-89
2021/06/05 00:17:35;;;;;;;13.63;9.57;;;19.50;97.30;;;;;;4917306;29;20423;-89
2021/06/05 00:20:00;;;;;;;13.90;9.60;;;19.40;97.30;;;;;;4917519;29;20427;-90
2021/06/05 00:22:26;;;;;;;14.70;10.10;;;19.40;97.30;;;;;;4917749;29;20682;-89
2021/06/05 00:24:51;;;;;;;11.17;8.30;;;19.40;97.30;;;;;;4917669;29;20203;-89
2021/06/05 00:27:17;;;;;;;15.53;9.90;;;19.40;97.30;;;;;;4918021;29;20176;-88
2021/06/05 00:29:42;;;;;;;13.53;10.30;;;19.40;97.30;;;;;;4917700;29;20266;-89
2021/06/05 00:32:08;;;;;;;12.53;8.80;;;19.40;97.30;;;;;;4917398;29;20222;-89
2021/06/05 00:34:33;;;;;;;11.90;9.33;;;19.40;97.30;;;;;;4917954;29;20195;-88
2021/06/05 00:36:59;;;;;;;9.77;8.23;;;19.40;97.30;;;;;;4917719;29;20657;-91
2021/06/05 00:39:27;;;;;;;11.93;8.93;;;19.40;97.30;;;;;;4918335;29;20195;-89
2021/06/05 00:41:52;;;;;;;13.00;9.00;;;19.30;97.30;;;;;;4918854;29;20576;-89
2021/06/05 00:44:18;;;;;;;12.80;8.80;;;19.30;97.30;;;;;;4918355;29;20473;-89
2021/06/05 00:46:44;;;;;;;12.50;9.47;;;19.30;97.30;;;;;;4935002;29;20180;-91
2021/06/05 00:49:10;;;;;;;12.70;10.07;;;19.30;97.30;;;;;;4918044;29;20187;-89
2021/06/05 00:51:48;;;;;;;14.30;9.13;;;19.30;97.30;;;;;;4918225;29;20330;-88
2021/06/05 00:54:15;;;;;;;9.40;8.27;;;19.30;97.30;;;;;;4917369;29;20430;-89
2021/06/05 00:56:43;;;;;;;11.80;8.90;;;19.30;97.30;;;;;;4917226;29;20572;-89
2021/06/05 00:59:09;;;;;;;14.17;9.50;;;19.40;97.30;;;;;;4933576;29;20419;-90
2021/06/05 01:01:38;;;;;;;13.23;8.50;;;19.40;97.30;;;;;;4925140;23;21029;-89
2021/06/05 01:04:06;;;;;;;11.60;9.07;;;19.30;97.30;;;;;;4937414;29;20447;-89
2021/06/05 01:06:46;;;;;;;14.67;9.37;;;19.30;97.30;;;;;;4920747;29;20420;-89
2021/06/05 01:09:26;;;;;;;10.70;8.43;;;19.30;97.30;;;;;;4920727;29;20430;-89
2021/06/05 01:12:03;;;;;;;9.63;8.10;;;19.20;97.30;;;;;;4920354;29;20447;-89
2021/06/05 01:14:51;;;;;;;10.37;8.33;;;19.20;97.30;;;;;;4937440;29;20395;-89
2021/06/05 01:17:22;;;;;;;12.80;8.40;;;19.20;97.30;;;;;;4945594;23;20879;-92
2021/06/05 01:20:03;;;;;;;12.20;7.00;;;19.20;97.30;;;;;;4924536;29;20506;-92
2021/06/05 01:22:54;;;;;;;13.20;8.23;;;19.20;97.30;;;;;;4942168;29;20455;-93
2021/06/05 01:25:30;;;;;;;11.00;7.77;;;19.10;97.30;;;;;;4924539;29;20462;-92
2021/06/05 01:28:12;;;;;;;9.93;7.80;;;19.20;97.30;;;;;;4924886;29;20423;-92
2021/06/05 01:30:49;;;;;;;14.67;7.97;;;19.20;97.30;;;;;;4924772;29;20957;-92
2021/06/05 01:33:18;;;;;;;8.73;7.03;;;19.20;97.30;;;;;;4924617;29;20447;-92
2021/06/05 01:35:44;;;;;;;11.90;7.63;;;19.20;97.30;;;;;;4925711;29;20816;-93
2021/06/05 01:38:16;;;;;;;13.83;8.00;;;19.20;97.30;;;;;;4925704;29;20427;-92
2021/06/05 01:40:51;;;;;;;10.50;8.00;;;19.20;97.30;;;;;;4925800;29;20428;-92
2021/06/05 01:43:21;;;;;;;12.00;8.70;;;19.20;97.30;;;;;;4926093;29;20494;-92
2021/06/05 01:45:48;;;;;;;11.63;8.27;;;19.20;97.30;;;;;;4925389;29;20572;-93
2021/06/05 01:48:15;;;;;;;10.50;7.60;;;19.10;97.30;;;;;;4925614;29;20420;-92
2021/06/05 01:50:43;;;;;;;10.17;7.43;;;19.10;97.30;;;;;;4909984;29;20428;-93
2021/06/05 01:53:18;;;;;;;11.53;7.70;;;19.10;97.30;;;;;;4925355;29;20448;-92
2021/06/05 01:55:54;;;;;;;10.00;7.40;;;19.10;97.30;;;;;;4925417;29;20549;-92
2021/06/05 01:58:25;;;;;;;11.43;7.30;;;19.10;97.30;;;;;;4924902;29;20423;-92
2021/06/05 02:00:53;;;;;;;12.77;8.40;;;19.10;97.30;;;;;;4925422;29;20428;-93
2021/06/05 02:03:19;;;;;;;10.47;7.00;;;19.10;97.30;;;;;;4925674;29;20470;-92
2021/06/05 02:05:45;;;;;;;11.00;7.80;;;19.10;97.30;;;;;;4925168;29;20440;-92
2021/06/05 02:08:14;;;;;;;9.63;7.13;;;19.10;97.30;;;;;;4924491;29;20435;-92
2021/06/05 02:10:40;;;;;;;8.00;7.00;;;19.10;97.30;;;;;;4924723;29;20472;-92
2021/06/05 02:13:15;;;;;;;10.67;7.00;;;19.10;97.30;;;;;;4923558;29;20431;-92
2021/06/05 02:15:49;;;;;;;10.03;7.30;;;19.10;97.30;;;;;;4924770;29;20509;-92
2021/06/05 02:18:23;;;;;;;10.70;7.60;;;19.10;97.30;;;;;;4925438;29;20457;-92
2021/06/05 02:20:55;;;;;;;11.53;7.50;;;19.10;97.30;;;;;;4941887;29;20504;-92
2021/06/05 02:23:37;;;;;;;9.47;7.20;;;19.10;97.30;;;;;;4924445;29;21061;-91
2021/06/05 02:26:03;;;;;;;8.23;6.93;;;19.00;97.30;;;;;;4923949;29;21021;-93
2021/06/05 02:28:31;;;;;;;9.60;7.87;;;19.00;97.30;;;;;;4924534;29;20420;-92
2021/06/05 02:30:57;;;;;;;11.47;7.87;;;18.90;97.30;;;;;;4923490;29;20451;-92
2021/06/05 02:33:23;;;;;;;13.80;7.77;;;18.90;97.30;;;;;;4941045;29;20478;-91
2021/06/05 02:35:50;;;;;;;12.07;7.83;;;18.90;97.30;;;;;;4924689;29;20531;-92
2021/06/05 02:38:18;;;;;;;9.93;8.00;;;18.90;97.30;;;;;;4925801;29;20423;-92
2021/06/05 02:40:45;;;;;;;11.03;8.00;;;18.90;97.30;;;;;;4925492;29;20434;-94
2021/06/05 02:43:23;;;;;;;9.47;6.70;;;18.90;97.30;;;;;;4925622;29;20546;-92
2021/06/05 02:45:59;;;;;;;9.77;7.33;;;18.80;97.30;;;;;;4925094;29;20818;-93
2021/06/05 02:48:43;;;;;;;11.50;6.80;;;18.80;97.30;;;;;;4942187;29;20511;-91
2021/06/05 02:51:08;;;;;;;11.80;6.97;;;18.80;97.30;;;;;;4924577;29;20419;-94
2021/06/05 02:53:34;;;;;;;8.27;6.50;;;18.80;97.30;;;;;;4923832;29;20823;-91
2021/06/05 02:56:00;;;;;;;8.67;6.80;;;18.80;97.30;;;;;;4922723;29;20687;-92
2021/06/05 02:58:25;;;;;;;8.73;7.33;;;18.70;97.30;;;;;;4923049;29;20184;-92
2021/06/05 03:00:51;;;;;;;9.33;6.73;;;18.70;97.30;;;;;;4922884;29;20184;-92
2021/06/05 03:03:19;;;;;;;7.67;6.80;;;18.70;97.30;;;;;;4922436;29;20215;-91
2021/06/05 03:05:45;;;;;;;7.57;6.53;;;18.70;97.30;;;;;;4922830;29;20443;-91
2021/06/05 03:08:14;;;;;;;9.73;7.30;;;18.70;97.30;;;;;;4922059;29;20411;-92
2021/06/05 03:10:40;;;;;;;10.00;7.30;;;18.70;97.30;;;;;;4922021;29;20471;-91
2021/06/05 03:25:17;;;;;;;11.53;7.80;;;18.60;97.30;;;;;;4960969;23;20525;-91
2021/06/05 03:27:47;;;;;;;10.93;8.10;;;18.60;97.30;;;;;;4896660;29;20953;-91
2021/06/05 03:30:36;;;;;;;13.27;8.10;;;18.60;97.30;;;;;;4881346;29;20422;-91
2021/06/05 03:33:08;;;;;;;9.80;7.50;;;18.60;97.30;;;;;;4857860;29;20462;-91
2021/06/05 03:35:37;;;;;;;12.60;8.50;;;18.60;97.30;;;;;;4888854;23;20954;-91
2021/06/05 03:38:09;;;;;;;12.90;9.40;;;18.60;97.30;;;;;;4917440;29;20446;-91
2021/06/05 03:40:38;;;;;;;10.30;8.20;;;18.50;97.30;;;;;;4918555;29;20466;-91
2021/06/05 03:43:08;;;;;;;12.13;8.93;;;18.50;97.30;;;;;;4919079;29;20550;-92
2021/06/05 03:45:37;;;;;;;11.10;9.00;;;18.50;97.30;;;;;;4935982;29;20408;-91
2021/06/05 03:48:20;;;;;;;13.87;9.60;;;18.50;97.30;;;;;;4919190;29;20454;-91
2021/06/05 03:50:49;;;;;;;10.70;8.80;;;18.50;97.30;;;;;;4936346;29;20944;-91
2021/06/05 03:53:19;;;;;;;13.17;9.20;;;18.50;97.30;;;;;;4919882;29;20416;-91
2021/06/05 03:55:47;;;;;;;17.43;8.67;;;18.50;97.30;;;;;;4918664;29;20431;-91
2021/06/05 03:58:26;;;;;;;11.37;9.20;;;18.50;97.30;;;;;;4918715;29;20452;-91
2021/06/05 04:00:52;;;;;;;10.83;9.10;;;18.50;97.30;;;;;;4919112;29;20479;-91
2021/06/05 04:03:17;;;;;;;15.47;9.97;;;18.50;97.30;;;;;;4917662;29;20459;-91
2021/06/05 04:05:43;;;;;;;17.13;10.00;;;18.50;97.30;;;;;;4917979;29;20175;-92
2021/06/05 04:08:10;;;;;;;15.73;9.30;;;18.50;97.30;;;;;;4918572;29;20173;-91
2021/06/05 04:10:36;;;;;;;14.90;9.90;;;18.50;97.30;;;;;;4918234;29;20272;-92
2021/06/05 04:13:03;;;;;;;13.27;10.80;;;18.50;97.30;;;;;;4918262;29;20519;-91
2021/06/05 04:15:30;;;;;;;15.93;9.87;;;18.50;97.30;;;;;;4918612;29;20427;-89
2021/06/05 04:18:04;;;;;;;14.60;10.50;;;18.50;97.30;;;;;;4918173;29;20424;-92
2021/06/05 04:20:30;;;;;;;16.60;11.50;;;18.50;97.30;;;;;;4918093;29;20939;-90
2021/06/05 04:22:56;;;;;;;14.40;10.17;;;18.50;97.30;;;;;;4918323;29;20725;-91
2021/06/05 04:25:22;;;;;;;16.50;11.13;;;18.50;97.30;;;;;;4917129;29;20930;-91
2021/06/05 04:27:48;;;;;;;15.10;10.63;;;18.50;97.30;;;;;;4916758;29;20282;-91
2021/06/05 04:30:16;;;;;;;18.80;11.63;;;18.50;97.30;;;;;;4917010;29;20207;-91
2021/06/05 04:32:41;;;;;;;15.53;11.50;;;18.50;97.30;;;;;;4917172;29;20515;-91
2021/06/05 04:35:08;;;;;;;18.60;11.37;;;18.50;97.30;;;;;;4916857;29;20526;-90
2021/06/05 04:37:33;;;;;;;13.63;10.90;;;18.50;97.30;;;;;;4917077;29;20314;-91
2021/06/05 04:39:59;;;;;;;15.67;11.27;;;18.50;97.30;;;;;;4917613;29;20871;-91
2021/06/05 04:42:27;;;;;;;17.07;11.00;;;18.60;97.30;;;;;;4917711;29;20175;-91
2021/06/05 04:44:52;;;;;;;15.27;10.70;;;18.60;97.30;;;;;;4917643;29;20179;-91
2021/06/05 04:47:18;;;;;;;13.83;9.63;;;18.60;97.30;;;;;;4917308;29;20447;-90
2021/06/05 04:49:45;;;;;;;15.17;10.57;;;18.60;97.30;;;;;;4917386;29;20172;-91
2021/06/05 04:52:11;;;;;;;19.60;10.67;;;18.60;97.30;;;;;;4917422;29;20419;-91
2021/06/05 04:54:36;;;;;;;16.77;11.30;;;18.70;97.30;;;;;;4917835;29;20965;-91
2021/06/05 04:57:05;;;;;;;17.00;10.83;;;18.70;97.30;;;;;;4934173;29;20987;-91
2021/06/05 04:59:30;;;;;;;15.13;10.83;;;18.70;97.30;;;;;;4918278;29;20210;-91
2021/06/05 05:01:56;;;;;;;16.93;11.63;;;18.80;97.30;;;;;;4916470;29;20795;-91
2021/06/05 05:04:22;;;;;;;14.60;10.00;;;18.80;97.30;;;;;;4918264;29;20226;-91
2021/06/05 05:06:48;;;;;;;17.33;11.13;;;18.80;97.30;;;;;;4918534;29;20435;-91
2021/06/05 05:09:15;;;;;;;15.40;10.70;;;18.90;97.30;;;;;;4918544;29;20915;-91
2021/06/05 05:11:41;;;;;;;14.70;11.03;;;18.90;97.30;;;;;;4918210;29;20731;-91
2021/06/05 05:14:07;;;;;;;14.37;10.87;;;19.00;97.30;;;;;;4917858;29;21006;-91
2021/06/05 05:16:33;;;;;;;16.10;11.03;;;19.10;97.30;;;;;;4918059;29;20200;-91
2021/06/05 05:18:59;;;;;;;15.37;12.13;;;19.10;97.30;;;;;;4918216;29;20499;-91
2021/06/05 05:21:26;;;;;;;16.43;11.47;;;19.20;97.30;;;;;;4918488;29;20459;-91
2021/06/05 05:23:52;;;;;;;16.73;11.37;;;19.30;97.30;;;;;;4916518;29;20204;-90
2021/06/05 05:26:20;;;;;;;16.03;10.90;;;19.40;97.30;;;;;;4923359;23;21010;-76
2021/06/05 05:28:45;;;;;;;16.23;10.60;;;19.40;97.30;;;;;;4915868;29;20428;-76
2021/06/05 05:31:14;;;;;;;15.70;11.23;;;19.50;97.30;;;;;;4915711;29;20527;-75
2021/06/05 05:33:41;;;;;;;12.60;9.43;;;19.60;97.30;;;;;;4916204;29;20263;-76
2021/06/05 05:36:13;;;;;;;12.30;10.47;;;19.60;97.30;;;;;;4909573;29;21158;-76
2021/06/05 05:38:39;;;;;;;14.60;10.43;;;19.80;97.30;;;;;;4915256;29;21502;-76
2021/06/05 05:41:12;;;;;;;16.50;10.57;;;19.80;97.30;;;;;;4916350;29;20435;-77
2021/06/05 05:43:38;;;;;;;15.80;10.90;;;19.90;97.30;;;;;;4914943;29;20537;-77
2021/06/05 05:46:07;;;;;;;13.93;10.30;;;19.90;97.30;;;;;;4914510;29;20676;-77
2021/06/05 05:48:34;;;;;;;13.07;10.70;;;20.00;97.30;;;;;;4915474;29;20499;-77
2021/06/05 05:51:00;;;;;;;13.20;9.70;;;20.10;97.30;;;;;;4927101;29;20890;-76
2021/06/05 05:53:26;;;;;;;14.00;9.53;;;20.10;97.30;;;;;;4917727;29;20433;-76
2021/06/05 05:55:55;;;;;;;12.60;8.87;;;20.20;97.30;;;;;;4916373;29;20514;-76
2021/06/05 05:58:23;;;;;;;11.63;8.57;;;20.20;97.30;;;;;;4912108;29;20284;-77
2021/06/05 06:00:51;;;;;;;13.70;9.20;;;20.30;97.30;;;;;;4937640;29;20498;-75
2021/06/05 06:03:19;;;;;;;13.17;9.03;;;20.30;97.30;;;;;;4940402;29;20868;-75
2021/06/05 06:05:44;;;;;;;11.40;8.30;;;20.30;97.30;;;;;;4923884;29;20461;-76
2021/06/05 06:08:12;;;;;;;11.27;8.37;;;20.30;97.30;;;;;;4930121;29;20450;-76
2021/06/05 06:11:27;;;;;;;13.90;7.80;;;20.30;97.30;;;;;;4932237;29;20258;-76
2021/06/05 06:14:00;;;;;;;11.83;8.90;;;20.40;97.30;;;;;;4915806;29;20530;-76
2021/06/05 06:16:30;;;;;;;12.23;8.27;;;20.40;97.30;;;;;;4917761;29;20435;-75
2021/06/05 06:18:58;;;;;;;13.00;8.90;;;20.50;97.30;;;;;;4935321;29;20438;-74
2021/06/05 06:21:28;;;;;;;13.03;8.93;;;20.50;97.30;;;;;;4918315;29;20647;-75
2021/06/05 06:23:56;;;;;;;10.60;7.87;;;20.50;97.30;;;;;;4918191;29;20547;-75
2021/06/05 06:26:29;;;;;;;15.27;9.03;;;20.50;97.30;;;;;;4918351;29;20476;-75
2021/06/05 06:29:07;;;;;;;10.27;8.10;;;20.60;97.30;;;;;;4918151;29;20503;-75
2021/06/05 06:31:33;;;;;;;10.67;7.90;;;20.60;97.30;;;;;;4918373;29;20479;-75
2021/06/05 06:33:59;;;;;;;12.00;7.73;;;20.70;97.30;;;;;;4933506;29;20482;-74
2021/06/05 06:36:25;;;;;;;10.40;7.57;;;20.70;97.30;;;;;;4917567;29;20211;-75
2021/06/05 06:38:51;;;;;;;8.80;7.30;;;20.70;97.30;;;;;;4912313;29;20712;-74
2021/06/05 06:41:24;;;;;;;8.87;6.87;;;20.80;97.30;;;;;;4901530;29;20448;-75
2021/06/05 06:43:50;;;;;;;8.20;6.47;;;20.80;97.30;;;;;;4916299;29;20817;-75
2021/06/05 06:46:21;;;;;;;9.50;6.57;;;20.80;97.30;;;;;;4919160;29;20952;-74
2021/06/05 06:48:49;;;;;;;9.27;6.83;;;20.90;97.30;;;;;;4899333;29;20187;-74
2021/06/05 06:51:14;;;;;;;8.63;5.57;;;20.90;97.30;;;;;;4899597;29;20731;-74
2021/06/05 06:53:40;;;;;;;14.53;6.10;;;20.90;97.30;;;;;;4899425;29;20455;-75
2021/06/05 06:56:06;;;;;;;7.37;6.07;;;20.90;97.30;;;;;;4902369;29;20188;-75
2021/06/05 06:58:33;;;;;;;9.00;6.47;;;21.00;97.30;;;;;;4911650;29;20588;-74
2021/06/05 07:00:59;;;;;;;10.43;6.60;;;21.00;97.30;;;;;;4899299;29;20509;-75
2021/06/05 07:03:24;;;;;;;9.20;6.67;;;21.00;97.30;;;;;;4901697;29;20978;-74
2021/06/05 07:05:50;;;;;;;8.10;5.73;;;21.10;97.30;;;;;;4917858;29;20675;-74
2021/06/05 07:08:23;;;;;;;21.03;6.90;;;21.10;97.30;;;;;;4918705;29;20196;-75
2021/06/05 07:10:58;;;;;;;7.30;5.53;;;21.20;97.30;;;;;;4907367;29;20208;-74
2021/06/05 07:13:25;;;;;;;9.00;5.40;;;21.20;97.30;;;;;;4908810;29;20444;-74
2021/06/05 07:15:53;;;;;;;11.90;6.30;;;21.20;97.30;;;;;;4898545;29;20428;-74
2021/06/05 07:18:20;;;;;;;9.13;5.50;;;21.20;97.30;;;;;;4915074;29;20958;-74
2021/06/05 07:20:48;;;;;;;6.70;4.50;;;21.30;97.30;;;;;;4932728;29;20458;-75
2021/06/05 07:23:15;;;;;;;9.37;5.87;;;21.30;97.30;;;;;;4915592;29;20503;-74
2021/06/05 07:25:40;;;;;;;7.03;5.83;;;21.30;97.30;;;;;;4934065;29;20423;-75
2021/06/05 07:28:25;;;;;;;13.73;8.20;;;21.30;97.30;;;;;;4917315;29;20502;-75
2021/06/05 07:30:53;;;;;;;14.17;8.40;;;21.30;97.30;;;;;;4917165;29;20199;-74
2021/06/05 07:33:20;;;;;;;9.67;6.60;;;21.30;97.30;;;;;;4917264;29;20442;-74
2021/06/05 07:35:46;;;;;;;10.00;6.93;;;21.40;97.30;;;;;;4929024;29;20483;-74
2021/06/05 07:38:14;;;;;;;14.93;8.53;;;21.50;97.30;;;;;;4915457;29;20438;-74
2021/06/05 07:40:42;;;;;;;10.93;6.83;;;21.50;97.30;;;;;;4916999;29;20535;-74
2021/06/05 07:43:08;;;;;;;9.80;6.70;;;21.60;97.30;;;;;;4916745;29;20506;-75
2021/06/05 07:45:34;;;;;;;8.50;6.30;;;21.60;97.30;;;;;;4917159;29;20470;-75
2021/06/05 07:48:00;;;;;;;9.10;6.10;;;21.60;97.30;;;;;;4914600;29;20183;-75
2021/06/05 07:50:26;;;;;;;9.73;7.47;;;21.70;97.30;;;;;;4897783;29;20232;-75
2021/06/05 07:52:52;;;;;;;10.83;7.77;;;21.80;97.30;;;;;;4898067;29;20793;-74
2021/06/05 07:55:18;;;;;;;11.57;8.90;;;21.90;97.30;;;;;;4897950;29;20421;-75
2021/06/05 07:57:44;;;;;;;8.17;7.23;;;22.00;97.30;;;;;;4898464;29;20188;-75
2021/06/05 08:00:18;;;;;;;9.60;7.77;;;22.10;97.30;;;;;;4907743;29;20483;-74
2021/06/05 08:02:44;;;;;;;9.70;7.33;;;22.20;97.30;;;;;;4903056;29;20476;-74
2021/06/05 08:05:10;;;;;;;11.57;8.30;;;22.30;97.30;;;;;;4904862;29;20531;-75
2021/06/05 08:07:36;;;;;;;10.70;7.60;;;22.50;97.30;;;;;;4916344;29;20394;-75
2021/06/05 08:10:06;;;;;;;11.00;8.40;;;22.60;97.30;;;;;;4933087;29;20431;-74
2021/06/05 08:12:31;;;;;;;11.77;8.30;;;22.70;97.30;;;;;;4905850;29;20746;-75
2021/06/05 08:14:57;;;;;;;10.27;8.13;;;22.80;97.30;;;;;;4904799;29;20529;-74
2021/06/05 08:17:22;;;;;;;13.17;9.17;;;22.80;97.30;;;;;;4898910;29;20679;-75
2021/06/05 08:19:48;;;;;;;10.93;8.70;;;22.80;97.30;;;;;;4897497;29;20181;-74
2021/06/05 08:22:14;;;;;;;10.87;8.10;;;22.90;97.30;;;;;;4897146;29;20197;-74
2021/06/05 08:24:39;;;;;;;10.63;8.03;;;22.90;97.30;;;;;;4897559;29;20215;-74
2021/06/05 08:27:06;;;;;;;9.37;7.70;;;23.00;97.30;;;;;;4909686;29;20638;-74
2021/06/05 08:29:31;;;;;;;9.60;7.20;;;23.10;97.30;;;;;;4903208;29;20611;-74
2021/06/05 08:31:57;;;;;;;17.20;11.03;;;23.10;97.30;;;;;;4897327;29;20448;-74
2021/06/05 08:34:23;;;;;;;14.40;8.73;;;23.20;97.30;;;;;;4928125;29;20188;-74
2021/06/05 08:36:49;;;;;;;10.50;7.90;;;23.20;97.30;;;;;;4922236;29;20279;-74
2021/06/05 08:39:15;;;;;;;11.73;8.10;;;23.30;97.30;;;;;;4909724;29;20455;-74
2021/06/05 08:41:48;;;;;;;11.70;8.53;;;23.30;97.30;;;;;;4926398;29;20207;-74
2021/06/05 08:44:17;;;;;;;15.13;8.57;;;23.40;97.30;;;;;;4911982;29;20246;-74
2021/06/05 08:47:18;;;;;;;11.07;7.90;;;23.40;97.30;;;;;;4933005;29;20446;-74
2021/06/05 08:49:45;;;;;;;16.17;7.20;;;23.50;97.30;;;;;;4901104;29;20420;-74
2021/06/05 08:52:11;;;;;;;8.20;7.20;;;23.50;97.30;;;;;;4930638;29;20814;-74
2021/06/05 08:54:57;;;;;;;8.73;6.70;;;23.60;97.30;;;;;;4916233;29;20450;-75
2021/06/05 08:57:22;;;;;;;37.57;7.00;;;23.60;97.30;;;;;;4916069;29;20654;-75
2021/06/05 08:59:48;;;;;;;9.67;6.40;;;23.70;97.30;;;;;;4930967;29;20439;-74
2021/06/05 09:02:16;;;;;;;8.60;6.63;;;23.70;97.30;;;;;;4911005;29;20338;-74
2021/06/05 09:04:42;;;;;;;8.03;6.20;;;23.70;97.30;;;;;;4904092;29;20571;-74
2021/06/05 09:07:12;;;;;;;9.97;5.53;;;23.70;97.30;;;;;;4898304;29;20510;-74
2021/06/05 09:09:49;;;;;;;8.30;6.27;;;23.80;97.30;;;;;;4915650;29;20997;-75
2021/06/05 09:12:19;;;;;;;10.73;6.60;;;23.80;97.30;;;;;;4917456;29;20797;-74
2021/06/05 09:14:53;;;;;;;9.20;6.57;;;23.90;97.30;;;;;;4934041;29;20420;-75
2021/06/05 09:17:36;;;;;;;10.07;7.17;;;23.90;97.30;;;;;;4914998;29;20935;-76
2021/06/05 09:20:06;;;;;;;8.63;6.70;;;23.90;97.30;;;;;;4933268;29;20514;-75
2021/06/05 09:22:38;;;;;;;8.80;6.93;;;23.90;97.30;;;;;;4927248;29;20503;-75
2021/06/05 09:25:39;;;;;;;9.20;7.70;;;23.90;97.30;;;;;;4900870;29;20439;-74
2021/06/05 09:28:17;;;;;;;10.20;7.27;;;24.00;97.30;;;;;;4906811;29;20474;-75
2021/06/05 09:30:44;;;;;;;11.23;8.27;;;24.00;97.30;;;;;;4919385;29;20499;-74
2021/06/05 09:33:12;;;;;;;11.70;7.63;;;24.00;97.30;;;;;;4918121;29;20438;-74
2021/06/05 09:38:38;;;;;;;9.10;7.53;;;24.20;97.30;;;;;;4916664;29;20531;-91
2021/06/05 09:41:20;;;;;;;13.13;7.80;;;24.20;97.30;;;;;;4901551;29;20436;-91
2021/06/05 09:43:48;;;;;;;10.73;7.90;;;24.30;97.30;;;;;;4907830;29;20463;-91
2021/06/05 09:46:19;;;;;;;11.00;7.10;;;24.30;96.70;;;;;;4902493;29;20472;-90
2021/06/05 09:48:46;;;;;;;11.47;8.63;;;24.50;96.60;;;;;;4902959;29;20428;-91
2021/06/05 09:51:38;;;;;;;12.83;7.23;;;24.50;96.40;;;;;;4903477;29;20424;-90
2021/06/05 09:54:08;;;;;;;10.20;7.60;;;24.60;96.50;;;;;;4920236;29;20479;-91
2021/06/05 09:57:14;;;;;;;11.00;7.33;;;24.60;95.70;;;;;;4902851;29;20443;-90
2021/06/05 09:59:40;;;;;;;9.10;6.67;;;24.70;96.40;;;;;;4906652;29;20416;-89
2021/06/05 10:02:16;;;;;;;7.77;6.27;;;24.80;96.10;;;;;;4939866;29;20480;-88
2021/06/05 10:04:42;;;;;;;7.03;6.13;;;24.80;95.90;;;;;;4908559;29;20216;-90
2021/06/05 10:07:24;;;;;;;9.17;6.93;;;25.00;95.80;;;;;;4902879;29;20866;-90
2021/06/05 10:09:59;;;;;;;8.73;6.90;;;25.10;95.70;;;;;;4902786;29;20436;-90
2021/06/05 10:12:28;;;;;;;11.67;7.10;;;25.10;94.20;;;;;;4903780;29;20503;-89
2021/06/05 10:14:56;;;;;;;7.50;6.70;;;25.10;94.10;;;;;;4903394;29;20523;-90
2021/06/05 10:17:30;;;;;;;8.00;6.10;;;25.10;93.80;;;;;;4903477;29;20452;-89
2021/06/05 10:20:15;;;;;;;6.33;6.03;;;25.10;93.60;;;;;;4903823;29;20427;-90
2021/06/05 10:22:41;;;;;;;9.50;7.30;;;25.10;93.50;;;;;;4903656;29;20451;-89
2021/06/05 10:25:30;;;;;;;7.53;6.93;;;25.10;92.70;;;;;;4903660;29;20854;-90
2021/06/05 10:28:05;;;;;;;7.73;7.10;;;25.20;93.30;;;;;;4903225;29;20444;-88
2021/06/05 10:30:54;;;;;;;11.53;7.37;;;25.30;94.00;;;;;;4902742;29;20420;-89
2021/06/05 10:33:32;;;;;;;9.70;6.33;;;25.40;93.70;;;;;;4900529;29;20457;-90
2021/06/05 10:35:59;;;;;;;9.10;6.20;;;25.50;94.00;;;;;;4901422;29;20424;-90
2021/06/05 10:38:27;;;;;;;9.57;7.30;;;25.60;93.90;;;;;;4901400;29;20480;-88
2021/06/05 10:40:52;;;;;;;13.00;9.17;;;25.70;93.10;;;;;;4901341;29;20430;-89
2021/06/05 10:43:18;;;;;;;11.03;7.43;;;25.80;94.20;;;;;;4900457;29;20461;-89
2021/06/05 10:45:49;;;;;;;9.00;7.87;;;25.80;94.00;;;;;;4901129;29;20191;-89
2021/06/05 10:48:29;;;;;;;11.63;7.07;;;25.80;92.60;;;;;;4900775;29;20275;-90
2021/06/05 10:58:15;;;;;;;7.80;7.30;;;25.70;93.60;;;;;;4920846;23;20922;-77
2021/06/05 11:01:00;;;;;;;8.73;7.17;;;25.70;93.20;;;;;;4918016;29;20444;-78
2021/06/05 11:03:25;;;;;;;8.37;7.10;;;25.70;92.50;;;;;;4917400;29;20558;-77
2021/06/05 11:06:07;;;;;;;10.63;7.67;;;25.70;93.10;;;;;;4917756;29;21015;-77
2021/06/05 11:08:51;;;;;;;7.90;6.63;;;25.70;92.70;;;;;;4908065;29;20244;-77
2021/06/05 11:11:39;;;;;;;9.07;7.10;;;25.60;92.90;;;;;;4901320;29;20456;-77
2021/06/05 11:14:23;;;;;;;11.97;7.57;;;25.60;92.70;;;;;;4917930;29;20450;-78
2021/06/05 11:16:58;;;;;;;11.33;8.10;;;25.60;93.20;;;;;;4915853;29;20567;-77
2021/06/05 11:19:49;;;;;;;12.10;8.13;;;25.50;91.40;;;;;;4917476;29;20435;-77
2021/06/05 11:22:20;;;;;;;11.97;9.50;;;25.50;93.10;;;;;;4917878;29;20520;-77
2021/06/05 11:25:05;;;;;;;11.70;8.77;;;25.60;93.90;;;;;;4912855;29;20472;-78
2021/06/05 11:27:37;;;;;;;11.00;8.33;;;25.80;94.60;;;;;;4915883;29;20452;-77
2021/06/05 11:30:21;;;;;;;9.57;8.53;;;25.90;93.40;;;;;;4916042;29;20413;-77
2021/06/05 11:32:59;;;;;;;8.87;8.20;;;25.90;91.70;;;;;;4910811;29;20483;-77
2021/06/05 11:35:46;;;;;;;12.40;8.57;;;26.00;93.10;;;;;;4934279;29;20408;-77
2021/06/05 11:38:18;;;;;;;11.43;7.93;;;26.10;92.50;;;;;;4917283;29;20938;-78
2021/06/05 11:41:05;;;;;;;16.27;8.40;;;26.50;95.30;;;;;;4917707;29;20467;-76
2021/06/05 11:43:31;;;;;;;9.43;7.77;;;26.70;92.90;;;;;;4906454;29;20563;-76
2021/06/05 11:46:09;;;;;;;10.40;7.97;;;26.90;91.40;;;;;;4897374;29;20947;-77
2021/06/05 11:48:44;;;;;;;13.43;9.10;;;27.20;92.10;;;;;;4898504;29;20191;-77
2021/06/05 11:51:22;;;;;;;11.00;7.73;;;27.40;89.70;;;;;;4898980;29;20439;-77
2021/06/05 11:53:52;;;;;;;9.93;7.60;;;27.60;89.20;;;;;;4899072;29;20424;-77
2021/06/05 11:56:30;;;;;;;11.57;9.50;;;27.70;89.30;;;;;;4907070;29;20478;-77
2021/06/05 11:59:04;;;;;;;15.50;8.90;;;27.90;88.10;;;;;;4908519;29;20427;-77
2021/06/05 12:01:31;;;;;;;13.13;8.73;;;27.90;88.60;;;;;;4899520;29;20986;-77
2021/06/05 12:04:04;;;;;;;11.13;8.90;;;28.00;88.80;;;;;;4903975;29;20550;-77
2021/06/05 12:06:37;;;;;;;11.60;9.27;;;27.90;88.50;;;;;;4914830;29;20431;-76
2021/06/05 12:09:15;;;;;;;10.93;8.97;;;27.80;88.20;;;;;;4898178;29;20424;-77
2021/06/05 12:12:07;;;;;;;12.80;9.20;;;27.80;87.70;;;;;;4898302;29;20448;-77
2021/06/05 12:17:05;;;;;;;8.80;8.17;;;27.50;87.00;;;;;;4933174;29;20439;-77
2021/06/05 12:19:34;;;;;;;12.83;9.10;;;27.50;88.60;;;;;;4917841;29;20478;-77
2021/06/05 12:22:16;;;;;;;12.40;9.13;;;27.60;88.70;;;;;;4917254;29;20447;-77
2021/06/05 12:24:50;;;;;;;9.83;8.20;;;27.70;87.10;;;;;;4932347;29;20478;-77
2021/06/05 12:27:29;;;;;;;11.00;8.90;;;27.80;86.50;;;;;;4916234;29;20462;-77
2021/06/05 12:30:09;;;;;;;13.63;8.73;;;27.90;87.10;;;;;;4934304;29;20430;-77
2021/06/05 12:32:36;;;;;;;9.30;8.33;;;28.00;86.00;;;;;;4928586;29;20463;-77
2021/06/05 12:35:40;;;;;;;10.93;8.13;;;28.20;85.40;;;;;;4911684;29;20592;-77
2021/06/05 12:38:08;;;;;;;10.27;8.53;;;28.30;83.20;;;;;;4822787;29;20439;-77
2021/06/05 12:40:53;;;;;;;8.97;8.20;;;28.40;85.80;;;;;;4900659;29;20946;-77
2021/06/05 12:43:28;;;;;;;11.70;8.30;;;28.60;84.80;;;;;;4919021;29;20470;-77
2021/06/05 12:46:01;;;;;;;7.67;7.27;;;28.70;84.00;;;;;;4915225;29;20429;-77
2021/06/05 12:48:28;;;;;;;9.03;7.87;;;28.70;84.50;;;;;;4916501;29;20427;-76
2021/06/05 12:50:56;;;;;;;9.53;7.60;;;28.90;83.60;;;;;;4916398;29;20869;-77
2021/06/05 12:53:25;;;;;;;8.80;8.33;;;29.00;83.80;;;;;;4916458;29;20428;-77
2021/06/05 12:55:57;;;;;;;8.83;7.90;;;29.10;86.00;;;;;;4911819;29;20428;-77
2021/06/05 12:58:44;;;;;;;8.90;7.57;;;29.10;83.00;;;;;;4905254;29;20499;-77
2021/06/05 13:01:33;;;;;;;8.30;7.47;;;29.10;82.90;;;;;;4915903;29;20990;-77
2021/06/05 13:04:00;;;;;;;8.90;7.73;;;29.20;82.90;;;;;;4932896;29;20464;-78
2021/06/05 13:06:53;;;;;;;12.13;7.83;;;29.10;83.30;;;;;;4916080;29;20471;-77
2021/06/05 13:09:31;;;;;;;9.63;8.10;;;29.10;82.20;;;;;;4916516;29;20583;-78
2021/06/05 13:11:59;;;;;;;9.37;8.43;;;29.20;82.90;;;;;;4916002;29;20444;-77
2021/06/05 13:14:29;;;;;;;8.77;7.40;;;29.20;81.70;;;;;;4916401;29;20503;-78
2021/06/05 13:17:28;;;;;;;7.83;7.00;;;29.20;84.20;;;;;;4916183;29;20427;-78
2021/06/05 13:20:22;;;;;;;7.67;7.27;;;29.50;83.50;;;;;;4915878;29;20507;-78
2021/06/05 13:22:48;;;;;;;8.43;7.20;;;29.60;80.10;;;;;;4916466;29;20459;-78
2021/06/05 13:25:17;;;;;;;7.43;6.80;;;29.70;83.90;;;;;;4916295;29;20420;-78